Saint Onge, South Dakota
Current Conditions -  °F | °C
As of 9:35 AM on Friday 21 Nov 2014 (Local Time) from KSPF Reporting Station
Clear Clear  
Wind Chill: 41°   Ceiling: Unl
Heat Index: 41°   Visibility: 10mi
Dew Point: 23°   Wind: 0mph
Humidity: 49%   Direction: NA
Pressure: 29.85"   Gusts: NA
Location:  44.55°N, 103.72°W
Report Text: KSPF 211635Z AUTO 00000KT 10SM CLR 05/M05 A2985 RMK AO2
Loading
Personal Weather Stations






























Interactive Weather Map New forecast layout! Learn more

10-Day Weather Forecast

Advertisements
Track Severe Weather on mobile